< < Back
Terminal Aerodrome Forecast


Current Version              Previous Versions:   1  2  3  4  5  6  7  8  9  

Terminal Aerodrome Forecast

720
FTUS44 KBMX 261510 AAA
TAFANB
TAF AMD
KANB 261510Z 2615/2712 17008KT P6SM SCT025 BKN035
     FM261700 16008KT P6SM -SHRA VCTS OVC015CB
      TEMPO 2618/2620 2SM +TSRA BKN009 OVC015CB
     FM262200 21008KT P6SM VCSH SCT025 BKN050
     FM270900 07003KT 5SM BR OVC025=

Latest METAR

459
SAUS70 KWBC 270200 RRA
MTRANB
METAR KANB 270153Z AUTO 24006KT 10SM CLR 21/18 A3017 RMK AO2 SLP210
T02060178


USA.gov is the U.S. government's official web portal to all federal, state and local government web resources and services.